sensor_id;sensor_type;location;lat;lon;timestamp;temperature;humidity
27781;DHT22;15167;1.318;103.762;2022-07-23T00:01:19;27.00;99.90
27781;DHT22;15167;1.318;103.762;2022-07-23T00:03:46;27.10;99.90
27781;DHT22;15167;1.318;103.762;2022-07-23T00:06:12;27.10;99.90
27781;DHT22;15167;1.318;103.762;2022-07-23T00:08:38;27.20;99.90
27781;DHT22;15167;1.318;103.762;2022-07-23T00:11:04;27.20;99.90
27781;DHT22;15167;1.318;103.762;2022-07-23T00:13:31;27.40;99.90
27781;DHT22;15167;1.318;103.762;2022-07-23T00:15:57;27.40;99.90
27781;DHT22;15167;1.318;103.762;2022-07-23T00:18:23;27.30;99.90
27781;DHT22;15167;1.318;103.762;2022-07-23T00:20:49;27.40;99.90
27781;DHT22;15167;1.318;103.762;2022-07-23T00:23:16;27.50;99.90
27781;DHT22;15167;1.318;103.762;2022-07-23T00:25:43;27.50;99.90
27781;DHT22;15167;1.318;103.762;2022-07-23T00:28:10;27.60;99.90
27781;DHT22;15167;1.318;103.762;2022-07-23T00:30:37;27.60;99.90
27781;DHT22;15167;1.318;103.762;2022-07-23T00:33:04;27.70;99.90
27781;DHT22;15167;1.318;103.762;2022-07-23T00:35:32;27.70;99.90
27781;DHT22;15167;1.318;103.762;2022-07-23T00:37:58;27.70;99.90
27781;DHT22;15167;1.318;103.762;2022-07-23T00:40:25;27.60;99.90
27781;DHT22;15167;1.318;103.762;2022-07-23T00:42:51;27.60;99.90
27781;DHT22;15167;1.318;103.762;2022-07-23T00:45:17;27.60;99.90
27781;DHT22;15167;1.318;103.762;2022-07-23T00:47:44;27.60;99.90
27781;DHT22;15167;1.318;103.762;2022-07-23T00:50:10;27.70;99.90
27781;DHT22;15167;1.318;103.762;2022-07-23T00:52:37;27.70;99.90
27781;DHT22;15167;1.318;103.762;2022-07-23T00:55:04;27.80;99.90
27781;DHT22;15167;1.318;103.762;2022-07-23T00:57:30;27.90;99.90
27781;DHT22;15167;1.318;103.762;2022-07-23T00:59:56;27.90;99.90
27781;DHT22;15167;1.318;103.762;2022-07-23T01:02:26;27.90;99.90
27781;DHT22;15167;1.318;103.762;2022-07-23T01:04:53;28.00;99.90
27781;DHT22;15167;1.318;103.762;2022-07-23T01:07:19;28.00;99.90
27781;DHT22;15167;1.318;103.762;2022-07-23T01:09:46;28.00;99.90
27781;DHT22;15167;1.318;103.762;2022-07-23T01:12:12;27.90;99.90
27781;DHT22;15167;1.318;103.762;2022-07-23T01:14:38;27.90;99.90
27781;DHT22;15167;1.318;103.762;2022-07-23T01:17:04;27.90;99.90
27781;DHT22;15167;1.318;103.762;2022-07-23T01:19:30;27.90;99.90
27781;DHT22;15167;1.318;103.762;2022-07-23T01:21:57;27.90;99.90
27781;DHT22;15167;1.318;103.762;2022-07-23T01:24:24;27.90;99.90
27781;DHT22;15167;1.318;103.762;2022-07-23T01:26:50;28.00;99.90
27781;DHT22;15167;1.318;103.762;2022-07-23T01:29:16;28.10;99.90
27781;DHT22;15167;1.318;103.762;2022-07-23T01:31:43;28.20;99.90
27781;DHT22;15167;1.318;103.762;2022-07-23T01:34:09;28.20;99.90
27781;DHT22;15167;1.318;103.762;2022-07-23T01:36:35;28.20;99.90
27781;DHT22;15167;1.318;103.762;2022-07-23T01:39:02;28.40;99.90
27781;DHT22;15167;1.318;103.762;2022-07-23T01:41:28;28.50;99.90
27781;DHT22;15167;1.318;103.762;2022-07-23T01:43:54;28.60;99.90
27781;DHT22;15167;1.318;103.762;2022-07-23T01:46:21;28.60;99.90
27781;DHT22;15167;1.318;103.762;2022-07-23T01:48:47;28.70;99.90
27781;DHT22;15167;1.318;103.762;2022-07-23T01:51:13;28.90;99.90
27781;DHT22;15167;1.318;103.762;2022-07-23T01:53:39;29.00;99.90
27781;DHT22;15167;1.318;103.762;2022-07-23T01:56:05;29.30;99.90
27781;DHT22;15167;1.318;103.762;2022-07-23T01:58:31;29.50;99.90
27781;DHT22;15167;1.318;103.762;2022-07-23T02:00:57;29.40;99.90
27781;DHT22;15167;1.318;103.762;2022-07-23T02:03:24;29.40;99.90
27781;DHT22;15167;1.318;103.762;2022-07-23T02:05:50;29.50;99.90
27781;DHT22;15167;1.318;103.762;2022-07-23T02:08:17;29.50;99.90
27781;DHT22;15167;1.318;103.762;2022-07-23T02:10:43;29.40;99.90
27781;DHT22;15167;1.318;103.762;2022-07-23T02:13:09;29.30;99.90
27781;DHT22;15167;1.318;103.762;2022-07-23T02:15:35;29.20;99.90
27781;DHT22;15167;1.318;103.762;2022-07-23T02:18:02;29.20;99.90
27781;DHT22;15167;1.318;103.762;2022-07-23T02:20:28;29.30;99.90
27781;DHT22;15167;1.318;103.762;2022-07-23T02:22:54;29.60;99.90
27781;DHT22;15167;1.318;103.762;2022-07-23T02:25:20;29.90;99.90
27781;DHT22;15167;1.318;103.762;2022-07-23T02:27:46;30.30;99.90
27781;DHT22;15167;1.318;103.762;2022-07-23T02:30:12;30.60;99.90
27781;DHT22;15167;1.318;103.762;2022-07-23T02:32:39;30.80;99.90
27781;DHT22;15167;1.318;103.762;2022-07-23T02:35:05;31.00;98.30
27781;DHT22;15167;1.318;103.762;2022-07-23T02:37:31;31.10;98.00
27781;DHT22;15167;1.318;103.762;2022-07-23T02:39:58;31.00;95.50
27781;DHT22;15167;1.318;103.762;2022-07-23T02:42:24;31.00;97.00
27781;DHT22;15167;1.318;103.762;2022-07-23T02:44:51;31.10;98.50
27781;DHT22;15167;1.318;103.762;2022-07-23T02:47:17;30.90;99.90
27781;DHT22;15167;1.318;103.762;2022-07-23T02:49:43;30.70;99.90
27781;DHT22;15167;1.318;103.762;2022-07-23T02:52:09;30.60;99.90
27781;DHT22;15167;1.318;103.762;2022-07-23T02:54:36;30.40;99.90
27781;DHT22;15167;1.318;103.762;2022-07-23T02:57:03;30.50;99.90
27781;DHT22;15167;1.318;103.762;2022-07-23T02:59:29;30.30;99.90
27781;DHT22;15167;1.318;103.762;2022-07-23T03:01:55;30.40;99.90
27781;DHT22;15167;1.318;103.762;2022-07-23T03:04:21;30.40;99.90
27781;DHT22;15167;1.318;103.762;2022-07-23T03:06:47;30.30;99.90
27781;DHT22;15167;1.318;103.762;2022-07-23T03:09:13;30.50;99.90
27781;DHT22;15167;1.318;103.762;2022-07-23T03:11:39;30.80;99.90
27781;DHT22;15167;1.318;103.762;2022-07-23T03:14:06;31.00;99.90
27781;DHT22;15167;1.318;103.762;2022-07-23T03:16:33;31.20;96.00
27781;DHT22;15167;1.318;103.762;2022-07-23T03:18:59;31.10;94.00
27781;DHT22;15167;1.318;103.762;2022-07-23T03:21:25;30.90;95.70
27781;DHT22;15167;1.318;103.762;2022-07-23T03:23:51;30.90;94.30
27781;DHT22;15167;1.318;103.762;2022-07-23T03:26:17;31.20;94.30
27781;DHT22;15167;1.318;103.762;2022-07-23T03:28:43;31.40;93.50
27781;DHT22;15167;1.318;103.762;2022-07-23T03:31:10;31.50;90.60
27781;DHT22;15167;1.318;103.762;2022-07-23T03:33:36;31.30;91.20
27781;DHT22;15167;1.318;103.762;2022-07-23T03:36:02;31.30;93.50
27781;DHT22;15167;1.318;103.762;2022-07-23T03:38:28;31.10;92.30
27781;DHT22;15167;1.318;103.762;2022-07-23T03:40:54;31.10;93.80
27781;DHT22;15167;1.318;103.762;2022-07-23T03:43:20;30.90;95.30
27781;DHT22;15167;1.318;103.762;2022-07-23T03:45:46;31.00;95.70
27781;DHT22;15167;1.318;103.762;2022-07-23T03:48:13;31.20;95.50
27781;DHT22;15167;1.318;103.762;2022-07-23T03:50:39;31.60;92.60
27781;DHT22;15167;1.318;103.762;2022-07-23T03:53:05;32.00;83.20
27781;DHT22;15167;1.318;103.762;2022-07-23T03:55:31;32.20;79.90
27781;DHT22;15167;1.318;103.762;2022-07-23T03:57:57;32.40;74.60
27781;DHT22;15167;1.318;103.762;2022-07-23T04:00:23;32.40;73.40
27781;DHT22;15167;1.318;103.762;2022-07-23T04:02:49;32.40;75.00
27781;DHT22;15167;1.318;103.762;2022-07-23T04:05:15;32.60;75.40
27781;DHT22;15167;1.318;103.762;2022-07-23T04:07:42;32.60;72.70
27781;DHT22;15167;1.318;103.762;2022-07-23T04:10:08;32.70;73.80
27781;DHT22;15167;1.318;103.762;2022-07-23T04:12:34;32.70;75.80
27781;DHT22;15167;1.318;103.762;2022-07-23T04:15:01;32.80;73.80
27781;DHT22;15167;1.318;103.762;2022-07-23T04:17:27;32.80;65.20
27781;DHT22;15167;1.318;103.762;2022-07-23T04:19:54;32.90;64.90
27781;DHT22;15167;1.318;103.762;2022-07-23T04:22:20;32.70;72.10
27781;DHT22;15167;1.318;103.762;2022-07-23T04:24:46;32.60;74.30
27781;DHT22;15167;1.318;103.762;2022-07-23T04:27:13;32.40;72.50
27781;DHT22;15167;1.318;103.762;2022-07-23T04:29:39;32.50;67.90
27781;DHT22;15167;1.318;103.762;2022-07-23T04:32:05;32.50;69.90
27781;DHT22;15167;1.318;103.762;2022-07-23T04:34:31;32.50;68.80
27781;DHT22;15167;1.318;103.762;2022-07-23T04:36:57;32.40;68.20
27781;DHT22;15167;1.318;103.762;2022-07-23T04:39:23;32.40;70.60
27781;DHT22;15167;1.318;103.762;2022-07-23T04:41:50;32.60;67.60
27781;DHT22;15167;1.318;103.762;2022-07-23T04:44:16;32.70;66.90
27781;DHT22;15167;1.318;103.762;2022-07-23T04:46:42;32.70;67.50
27781;DHT22;15167;1.318;103.762;2022-07-23T04:49:08;32.90;62.60
27781;DHT22;15167;1.318;103.762;2022-07-23T04:51:34;33.20;61.80
27781;DHT22;15167;1.318;103.762;2022-07-23T04:54:00;33.30;58.20
27781;DHT22;15167;1.318;103.762;2022-07-23T04:56:27;33.50;51.80
27781;DHT22;15167;1.318;103.762;2022-07-23T04:58:53;33.60;48.30
27781;DHT22;15167;1.318;103.762;2022-07-23T05:01:19;33.90;39.90
27781;DHT22;15167;1.318;103.762;2022-07-23T05:03:45;34.30;37.70
27781;DHT22;15167;1.318;103.762;2022-07-23T05:06:14;34.60;33.00
27781;DHT22;15167;1.318;103.762;2022-07-23T05:08:40;35.40;28.60
27781;DHT22;15167;1.318;103.762;2022-07-23T05:11:06;36.00;24.00
27781;DHT22;15167;1.318;103.762;2022-07-23T05:13:32;36.90;17.00
27781;DHT22;15167;1.318;103.762;2022-07-23T05:15:58;37.30;10.60
27781;DHT22;15167;1.318;103.762;2022-07-23T05:18:25;36.70;11.30
27781;DHT22;15167;1.318;103.762;2022-07-23T05:20:51;36.00;14.00
27781;DHT22;15167;1.318;103.762;2022-07-23T05:23:17;35.40;14.60
27781;DHT22;15167;1.318;103.762;2022-07-23T05:25:43;35.30;17.30
27781;DHT22;15167;1.318;103.762;2022-07-23T05:28:10;35.70;15.10
27781;DHT22;15167;1.318;103.762;2022-07-23T05:30:36;35.50;16.50
27781;DHT22;15167;1.318;103.762;2022-07-23T05:33:02;35.70;15.80
27781;DHT22;15167;1.318;103.762;2022-07-23T05:35:28;35.50;17.00
27781;DHT22;15167;1.318;103.762;2022-07-23T05:37:54;35.80;16.70
27781;DHT22;15167;1.318;103.762;2022-07-23T05:40:21;36.10;14.70
27781;DHT22;15167;1.318;103.762;2022-07-23T05:42:47;36.20;18.00
27781;DHT22;15167;1.318;103.762;2022-07-23T05:45:13;36.10;28.70
27781;DHT22;15167;1.318;103.762;2022-07-23T05:47:40;35.90;37.40
27781;DHT22;15167;1.318;103.762;2022-07-23T05:50:06;35.90;41.60
27781;DHT22;15167;1.318;103.762;2022-07-23T05:52:32;36.00;42.10
27781;DHT22;15167;1.318;103.762;2022-07-23T05:54:59;36.00;41.70
27781;DHT22;15167;1.318;103.762;2022-07-23T05:57:25;35.70;44.70
27781;DHT22;15167;1.318;103.762;2022-07-23T05:59:51;35.40;45.10
27781;DHT22;15167;1.318;103.762;2022-07-23T06:02:17;35.10;49.20
27781;DHT22;15167;1.318;103.762;2022-07-23T06:04:43;34.90;55.30
27781;DHT22;15167;1.318;103.762;2022-07-23T06:07:09;34.40;66.70
27781;DHT22;15167;1.318;103.762;2022-07-23T06:09:35;34.30;70.60
27781;DHT22;15167;1.318;103.762;2022-07-23T06:12:01;34.00;75.80
27781;DHT22;15167;1.318;103.762;2022-07-23T06:14:28;34.00;77.50
27781;DHT22;15167;1.318;103.762;2022-07-23T06:16:54;34.00;79.40
27781;DHT22;15167;1.318;103.762;2022-07-23T06:19:20;34.10;77.30
27781;DHT22;15167;1.318;103.762;2022-07-23T06:21:46;34.50;72.00
27781;DHT22;15167;1.318;103.762;2022-07-23T06:24:12;34.60;66.70
27781;DHT22;15167;1.318;103.762;2022-07-23T06:26:39;34.60;68.50
27781;DHT22;15167;1.318;103.762;2022-07-23T06:29:05;34.70;66.70
27781;DHT22;15167;1.318;103.762;2022-07-23T06:31:31;34.70;65.00
27781;DHT22;15167;1.318;103.762;2022-07-23T06:33:57;34.80;60.10
27781;DHT22;15167;1.318;103.762;2022-07-23T06:36:23;34.80;57.60
27781;DHT22;15167;1.318;103.762;2022-07-23T06:38:49;34.90;55.80
27781;DHT22;15167;1.318;103.762;2022-07-23T06:41:16;34.80;52.80
27781;DHT22;15167;1.318;103.762;2022-07-23T06:43:42;34.80;49.90
27781;DHT22;15167;1.318;103.762;2022-07-23T06:46:08;35.00;49.50
27781;DHT22;15167;1.318;103.762;2022-07-23T06:48:34;35.20;47.70
27781;DHT22;15167;1.318;103.762;2022-07-23T06:51:01;35.50;39.50
27781;DHT22;15167;1.318;103.762;2022-07-23T06:53:28;35.80;33.80
27781;DHT22;15167;1.318;103.762;2022-07-23T06:55:54;36.10;28.30
27781;DHT22;15167;1.318;103.762;2022-07-23T06:58:20;36.40;24.80
27781;DHT22;15167;1.318;103.762;2022-07-23T07:00:46;36.60;23.30
27781;DHT22;15167;1.318;103.762;2022-07-23T07:03:12;36.60;22.60
27781;DHT22;15167;1.318;103.762;2022-07-23T07:05:38;36.40;22.80
27781;DHT22;15167;1.318;103.762;2022-07-23T07:08:08;36.10;25.10
27781;DHT22;15167;1.318;103.762;2022-07-23T07:10:34;35.60;28.60
27781;DHT22;15167;1.318;103.762;2022-07-23T07:13:00;35.10;35.40
27781;DHT22;15167;1.318;103.762;2022-07-23T07:15:26;34.80;40.40
27781;DHT22;15167;1.318;103.762;2022-07-23T07:17:52;34.40;44.90
27781;DHT22;15167;1.318;103.762;2022-07-23T07:20:18;34.00;49.40
27781;DHT22;15167;1.318;103.762;2022-07-23T07:22:44;33.60;54.80
27781;DHT22;15167;1.318;103.762;2022-07-23T07:25:10;33.30;57.40
27781;DHT22;15167;1.318;103.762;2022-07-23T07:27:37;33.30;61.00
27781;DHT22;15167;1.318;103.762;2022-07-23T07:30:04;33.10;63.90
27781;DHT22;15167;1.318;103.762;2022-07-23T07:32:30;33.10;61.10
27781;DHT22;15167;1.318;103.762;2022-07-23T07:34:58;33.00;60.00
27781;DHT22;15167;1.318;103.762;2022-07-23T07:37:24;32.90;61.40
27781;DHT22;15167;1.318;103.762;2022-07-23T07:39:50;32.80;62.70
27781;DHT22;15167;1.318;103.762;2022-07-23T07:42:16;32.70;64.90
27781;DHT22;15167;1.318;103.762;2022-07-23T07:44:43;32.50;66.90
27781;DHT22;15167;1.318;103.762;2022-07-23T07:47:09;32.50;67.80
27781;DHT22;15167;1.318;103.762;2022-07-23T07:49:35;32.20;73.60
27781;DHT22;15167;1.318;103.762;2022-07-23T07:52:01;32.20;80.30
27781;DHT22;15167;1.318;103.762;2022-07-23T07:54:27;32.00;87.70
27781;DHT22;15167;1.318;103.762;2022-07-23T07:56:53;31.90;93.20
27781;DHT22;15167;1.318;103.762;2022-07-23T07:59:19;31.70;95.40
27781;DHT22;15167;1.318;103.762;2022-07-23T08:01:45;31.50;98.50
27781;DHT22;15167;1.318;103.762;2022-07-23T08:04:11;31.40;99.90
27781;DHT22;15167;1.318;103.762;2022-07-23T08:06:38;31.40;99.90
27781;DHT22;15167;1.318;103.762;2022-07-23T08:09:04;31.20;99.90
27781;DHT22;15167;1.318;103.762;2022-07-23T08:11:30;31.20;99.90
27781;DHT22;15167;1.318;103.762;2022-07-23T08:13:56;31.20;99.90
27781;DHT22;15167;1.318;103.762;2022-07-23T08:16:22;31.10;99.90
27781;DHT22;15167;1.318;103.762;2022-07-23T08:18:48;31.10;99.90
27781;DHT22;15167;1.318;103.762;2022-07-23T08:21:14;31.10;99.90
27781;DHT22;15167;1.318;103.762;2022-07-23T08:23:40;31.20;99.90
27781;DHT22;15167;1.318;103.762;2022-07-23T08:26:07;31.10;99.90
27781;DHT22;15167;1.318;103.762;2022-07-23T08:28:33;30.90;99.90
27781;DHT22;15167;1.318;103.762;2022-07-23T08:30:59;30.80;99.90
27781;DHT22;15167;1.318;103.762;2022-07-23T08:33:26;30.80;99.90
27781;DHT22;15167;1.318;103.762;2022-07-23T08:35:52;30.60;99.90
27781;DHT22;15167;1.318;103.762;2022-07-23T08:38:19;30.50;99.90
27781;DHT22;15167;1.318;103.762;2022-07-23T08:40:46;30.60;99.90
27781;DHT22;15167;1.318;103.762;2022-07-23T08:43:22;30.60;99.90
27781;DHT22;15167;1.318;103.762;2022-07-23T08:45:50;30.60;99.90
27781;DHT22;15167;1.318;103.762;2022-07-23T08:48:17;30.80;99.90
27781;DHT22;15167;1.318;103.762;2022-07-23T08:50:47;30.90;99.50
27781;DHT22;15167;1.318;103.762;2022-07-23T08:53:14;31.00;98.00
27781;DHT22;15167;1.318;103.762;2022-07-23T08:55:42;31.10;97.60
27781;DHT22;15167;1.318;103.762;2022-07-23T08:58:09;31.10;97.40
27781;DHT22;15167;1.318;103.762;2022-07-23T09:00:35;31.20;96.70
27781;DHT22;15167;1.318;103.762;2022-07-23T09:03:01;31.10;96.50
27781;DHT22;15167;1.318;103.762;2022-07-23T09:05:27;31.20;96.90
27781;DHT22;15167;1.318;103.762;2022-07-23T09:08:06;31.30;96.40
27781;DHT22;15167;1.318;103.762;2022-07-23T09:13:30;31.20;95.50
27781;DHT22;15167;1.318;103.762;2022-07-23T09:16:01;31.20;95.00
27781;DHT22;15167;1.318;103.762;2022-07-23T09:18:34;31.20;94.40
27781;DHT22;15167;1.318;103.762;2022-07-23T09:21:06;31.20;94.80
27781;DHT22;15167;1.318;103.762;2022-07-23T09:26:29;31.10;96.40
27781;DHT22;15167;1.318;103.762;2022-07-23T09:29:00;31.10;94.10
27781;DHT22;15167;1.318;103.762;2022-07-23T09:31:30;31.20;92.90
27781;DHT22;15167;1.318;103.762;2022-07-23T09:34:10;31.20;92.80
27781;DHT22;15167;1.318;103.762;2022-07-23T09:36:36;31.30;93.20
27781;DHT22;15167;1.318;103.762;2022-07-23T09:39:02;31.20;94.30
27781;DHT22;15167;1.318;103.762;2022-07-23T09:41:35;31.20;95.30
27781;DHT22;15167;1.318;103.762;2022-07-23T09:44:06;31.20;96.30
27781;DHT22;15167;1.318;103.762;2022-07-23T09:46:33;31.10;97.90
27781;DHT22;15167;1.318;103.762;2022-07-23T09:49:00;30.90;97.30
27781;DHT22;15167;1.318;103.762;2022-07-23T09:51:43;30.90;98.30
27781;DHT22;15167;1.318;103.762;2022-07-23T09:54:19;31.00;98.90
27781;DHT22;15167;1.318;103.762;2022-07-23T09:56:46;31.00;99.30
27781;DHT22;15167;1.318;103.762;2022-07-23T09:59:13;30.90;99.90
27781;DHT22;15167;1.318;103.762;2022-07-23T10:01:43;30.90;99.90
27781;DHT22;15167;1.318;103.762;2022-07-23T10:04:10;30.90;99.90
27781;DHT22;15167;1.318;103.762;2022-07-23T10:06:37;30.90;99.90
27781;DHT22;15167;1.318;103.762;2022-07-23T10:09:05;30.90;99.90
27781;DHT22;15167;1.318;103.762;2022-07-23T10:11:31;30.80;99.90
27781;DHT22;15167;1.318;103.762;2022-07-23T10:13:59;30.70;99.90
27781;DHT22;15167;1.318;103.762;2022-07-23T10:16:28;30.60;99.90
27781;DHT22;15167;1.318;103.762;2022-07-23T10:18:54;30.50;99.90
27781;DHT22;15167;1.318;103.762;2022-07-23T10:21:43;30.50;99.90
27781;DHT22;15167;1.318;103.762;2022-07-23T10:24:12;30.40;99.90
27781;DHT22;15167;1.318;103.762;2022-07-23T10:26:45;30.10;99.90
27781;DHT22;15167;1.318;103.762;2022-07-23T10:29:19;29.80;99.90
27781;DHT22;15167;1.318;103.762;2022-07-23T10:31:55;29.60;99.90
27781;DHT22;15167;1.318;103.762;2022-07-23T10:39:22;29.80;99.90
27781;DHT22;15167;1.318;103.762;2022-07-23T10:41:49;29.90;99.90
27781;DHT22;15167;1.318;103.762;2022-07-23T10:44:17;29.90;99.90
27781;DHT22;15167;1.318;103.762;2022-07-23T10:49:41;29.90;99.90
27781;DHT22;15167;1.318;103.762;2022-07-23T10:57:12;29.00;99.90
27781;DHT22;15167;1.318;103.762;2022-07-23T11:02:23;28.80;99.90
27781;DHT22;15167;1.318;103.762;2022-07-23T11:04:52;28.80;99.90
27781;DHT22;15167;1.318;103.762;2022-07-23T11:07:18;28.90;99.90
27781;DHT22;15167;1.318;103.762;2022-07-23T11:09:44;28.80;99.90
27781;DHT22;15167;1.318;103.762;2022-07-23T11:14:57;28.40;99.90
27781;DHT22;15167;1.318;103.762;2022-07-23T11:17:24;28.20;99.90
27781;DHT22;15167;1.318;103.762;2022-07-23T11:22:39;28.20;99.90
27781;DHT22;15167;1.318;103.762;2022-07-23T11:25:05;28.30;99.90
27781;DHT22;15167;1.318;103.762;2022-07-23T11:30:08;28.60;99.90
27781;DHT22;15167;1.318;103.762;2022-07-23T11:32:38;28.70;99.90
27781;DHT22;15167;1.318;103.762;2022-07-23T11:35:24;28.90;99.90
27781;DHT22;15167;1.318;103.762;2022-07-23T11:37:52;29.00;99.90
27781;DHT22;15167;1.318;103.762;2022-07-23T11:40:19;29.00;99.90
27781;DHT22;15167;1.318;103.762;2022-07-23T11:42:53;29.00;99.90
27781;DHT22;15167;1.318;103.762;2022-07-23T11:45:19;28.90;99.90
27781;DHT22;15167;1.318;103.762;2022-07-23T11:47:45;28.80;99.90
27781;DHT22;15167;1.318;103.762;2022-07-23T11:50:12;28.80;99.90
27781;DHT22;15167;1.318;103.762;2022-07-23T11:52:38;28.60;99.90
27781;DHT22;15167;1.318;103.762;2022-07-23T11:55:06;28.70;99.90
27781;DHT22;15167;1.318;103.762;2022-07-23T11:57:34;28.80;99.90
27781;DHT22;15167;1.318;103.762;2022-07-23T12:00:03;28.80;99.90
27781;DHT22;15167;1.318;103.762;2022-07-23T12:02:30;28.90;99.90
27781;DHT22;15167;1.318;103.762;2022-07-23T12:04:56;29.00;99.90
27781;DHT22;15167;1.318;103.762;2022-07-23T12:07:33;29.00;99.90
27781;DHT22;15167;1.318;103.762;2022-07-23T12:10:09;29.10;99.90
27781;DHT22;15167;1.318;103.762;2022-07-23T12:12:37;29.10;99.90
27781;DHT22;15167;1.318;103.762;2022-07-23T12:15:03;29.10;99.90
27781;DHT22;15167;1.318;103.762;2022-07-23T12:17:31;29.20;99.90
27781;DHT22;15167;1.318;103.762;2022-07-23T12:19:58;29.20;99.90
27781;DHT22;15167;1.318;103.762;2022-07-23T12:22:25;29.20;99.90
27781;DHT22;15167;1.318;103.762;2022-07-23T12:24:55;29.20;99.90
27781;DHT22;15167;1.318;103.762;2022-07-23T12:27:22;29.20;99.90
27781;DHT22;15167;1.318;103.762;2022-07-23T12:29:48;29.30;99.90
27781;DHT22;15167;1.318;103.762;2022-07-23T12:32:19;29.30;99.90
27781;DHT22;15167;1.318;103.762;2022-07-23T12:34:45;29.30;99.90
27781;DHT22;15167;1.318;103.762;2022-07-23T12:37:27;29.30;99.90
27781;DHT22;15167;1.318;103.762;2022-07-23T12:39:54;29.30;99.90
27781;DHT22;15167;1.318;103.762;2022-07-23T12:42:20;29.30;99.90
27781;DHT22;15167;1.318;103.762;2022-07-23T12:45:07;29.20;99.90
27781;DHT22;15167;1.318;103.762;2022-07-23T12:53:02;29.30;99.90
27781;DHT22;15167;1.318;103.762;2022-07-23T12:55:29;29.30;99.90
27781;DHT22;15167;1.318;103.762;2022-07-23T12:58:02;29.30;99.90
27781;DHT22;15167;1.318;103.762;2022-07-23T13:00:30;29.20;99.90
27781;DHT22;15167;1.318;103.762;2022-07-23T13:02:56;29.20;99.90
27781;DHT22;15167;1.318;103.762;2022-07-23T13:05:22;29.20;99.90
27781;DHT22;15167;1.318;103.762;2022-07-23T13:07:48;29.20;99.90
27781;DHT22;15167;1.318;103.762;2022-07-23T13:10:15;29.20;99.90
27781;DHT22;15167;1.318;103.762;2022-07-23T13:12:41;29.20;99.90
27781;DHT22;15167;1.318;103.762;2022-07-23T13:15:07;29.20;99.90
27781;DHT22;15167;1.318;103.762;2022-07-23T13:17:33;29.20;99.90
27781;DHT22;15167;1.318;103.762;2022-07-23T13:19:59;29.20;99.90
27781;DHT22;15167;1.318;103.762;2022-07-23T13:22:25;29.10;99.90
27781;DHT22;15167;1.318;103.762;2022-07-23T13:24:52;29.10;99.90
27781;DHT22;15167;1.318;103.762;2022-07-23T13:27:19;29.20;99.90
27781;DHT22;15167;1.318;103.762;2022-07-23T13:29:48;29.20;99.90
27781;DHT22;15167;1.318;103.762;2022-07-23T13:32:14;29.20;99.90
27781;DHT22;15167;1.318;103.762;2022-07-23T13:34:40;29.20;99.90
27781;DHT22;15167;1.318;103.762;2022-07-23T13:37:07;29.20;99.90
27781;DHT22;15167;1.318;103.762;2022-07-23T13:39:33;29.20;99.90
27781;DHT22;15167;1.318;103.762;2022-07-23T13:41:59;29.20;99.90
27781;DHT22;15167;1.318;103.762;2022-07-23T13:44:25;29.20;99.90
27781;DHT22;15167;1.318;103.762;2022-07-23T13:46:51;29.20;99.90
27781;DHT22;15167;1.318;103.762;2022-07-23T13:49:18;29.20;99.90
27781;DHT22;15167;1.318;103.762;2022-07-23T13:51:44;29.10;99.90
27781;DHT22;15167;1.318;103.762;2022-07-23T13:54:10;29.20;99.90
27781;DHT22;15167;1.318;103.762;2022-07-23T13:56:36;29.10;99.90
27781;DHT22;15167;1.318;103.762;2022-07-23T13:59:03;29.00;99.90
27781;DHT22;15167;1.318;103.762;2022-07-23T14:01:29;29.00;99.90
27781;DHT22;15167;1.318;103.762;2022-07-23T14:03:55;29.00;99.90
27781;DHT22;15167;1.318;103.762;2022-07-23T14:06:21;29.00;99.90
27781;DHT22;15167;1.318;103.762;2022-07-23T14:08:47;29.10;99.90
27781;DHT22;15167;1.318;103.762;2022-07-23T14:11:13;29.00;99.90
27781;DHT22;15167;1.318;103.762;2022-07-23T14:13:40;29.00;99.90
27781;DHT22;15167;1.318;103.762;2022-07-23T14:16:06;29.00;99.90
27781;DHT22;15167;1.318;103.762;2022-07-23T14:18:32;29.00;99.90
27781;DHT22;15167;1.318;103.762;2022-07-23T14:20:58;29.00;99.90
27781;DHT22;15167;1.318;103.762;2022-07-23T14:23:24;29.00;99.90
27781;DHT22;15167;1.318;103.762;2022-07-23T14:25:50;29.00;99.90
27781;DHT22;15167;1.318;103.762;2022-07-23T14:28:16;28.90;99.90
27781;DHT22;15167;1.318;103.762;2022-07-23T14:30:43;28.90;99.90
27781;DHT22;15167;1.318;103.762;2022-07-23T14:33:09;28.90;99.90
27781;DHT22;15167;1.318;103.762;2022-07-23T14:35:35;28.90;99.90
27781;DHT22;15167;1.318;103.762;2022-07-23T14:38:01;28.90;99.90
27781;DHT22;15167;1.318;103.762;2022-07-23T14:40:27;28.90;99.90
27781;DHT22;15167;1.318;103.762;2022-07-23T14:42:53;28.80;99.90
27781;DHT22;15167;1.318;103.762;2022-07-23T14:45:19;28.80;99.90
27781;DHT22;15167;1.318;103.762;2022-07-23T14:47:46;28.80;99.90
27781;DHT22;15167;1.318;103.762;2022-07-23T14:50:13;28.80;99.90
27781;DHT22;15167;1.318;103.762;2022-07-23T14:52:39;28.80;99.90
27781;DHT22;15167;1.318;103.762;2022-07-23T14:55:05;28.70;99.90
27781;DHT22;15167;1.318;103.762;2022-07-23T14:57:32;28.70;99.90
27781;DHT22;15167;1.318;103.762;2022-07-23T14:59:58;28.70;99.90
27781;DHT22;15167;1.318;103.762;2022-07-23T15:02:24;28.80;99.90
27781;DHT22;15167;1.318;103.762;2022-07-23T15:04:50;28.70;99.90
27781;DHT22;15167;1.318;103.762;2022-07-23T15:07:16;28.70;99.90
27781;DHT22;15167;1.318;103.762;2022-07-23T15:09:42;28.70;99.90
27781;DHT22;15167;1.318;103.762;2022-07-23T15:12:08;28.70;99.90
27781;DHT22;15167;1.318;103.762;2022-07-23T15:14:35;28.80;99.90
27781;DHT22;15167;1.318;103.762;2022-07-23T15:17:01;28.70;99.90
27781;DHT22;15167;1.318;103.762;2022-07-23T15:19:27;28.70;99.90
27781;DHT22;15167;1.318;103.762;2022-07-23T15:21:53;28.70;99.90
27781;DHT22;15167;1.318;103.762;2022-07-23T15:24:19;28.60;99.90
27781;DHT22;15167;1.318;103.762;2022-07-23T15:26:45;28.60;99.90
27781;DHT22;15167;1.318;103.762;2022-07-23T15:29:11;28.60;99.90
27781;DHT22;15167;1.318;103.762;2022-07-23T15:31:38;28.60;99.90
27781;DHT22;15167;1.318;103.762;2022-07-23T15:34:04;28.60;99.90
27781;DHT22;15167;1.318;103.762;2022-07-23T15:36:30;28.50;99.90
27781;DHT22;15167;1.318;103.762;2022-07-23T15:38:56;28.60;99.90
27781;DHT22;15167;1.318;103.762;2022-07-23T15:41:22;28.60;99.90
27781;DHT22;15167;1.318;103.762;2022-07-23T15:43:48;28.50;99.90
27781;DHT22;15167;1.318;103.762;2022-07-23T15:46:14;28.50;99.90
27781;DHT22;15167;1.318;103.762;2022-07-23T15:48:42;28.50;99.90